createdAt,value
2023-05-14T00:01:32.757Z,13.32
2023-05-14T00:03:59.929Z,12.85
2023-05-14T00:06:26.986Z,12.57
2023-05-14T00:08:53.964Z,13.32
2023-05-14T00:11:21.421Z,13.48
2023-05-14T00:13:49.101Z,13.32
2023-05-14T00:16:16.364Z,12.63
2023-05-14T00:18:43.451Z,13.68
2023-05-14T00:21:10.517Z,14.20
2023-05-14T00:23:37.525Z,14.65
2023-05-14T00:26:04.663Z,14.45
2023-05-14T00:28:31.648Z,15.13
2023-05-14T00:30:58.659Z,17.17
2023-05-14T00:33:25.695Z,15.07
2023-05-14T00:35:52.786Z,14.63
2023-05-14T00:38:19.772Z,15.38
2023-05-14T00:40:51.386Z,15.65
2023-05-14T00:43:20.917Z,13.25
2023-05-14T00:45:51.161Z,13.18
2023-05-14T00:48:19.607Z,14.90
2023-05-14T00:50:46.836Z,13.38
2023-05-14T00:53:14.018Z,13.05
2023-05-14T00:55:42.604Z,13.60
2023-05-14T00:58:13.889Z,15.48
2023-05-14T01:00:42.243Z,14.68
2023-05-14T01:03:09.920Z,13.90
2023-05-14T01:06:00.892Z,15.35
2023-05-14T01:08:51.655Z,16.33
2023-05-14T01:12:03.126Z,15.88
2023-05-14T01:14:45.135Z,14.75
2023-05-14T01:17:15.762Z,16.42
2023-05-14T01:19:47.805Z,15.25
2023-05-14T01:22:14.905Z,15.18
2023-05-14T01:24:41.940Z,14.50
2023-05-14T01:28:01.897Z,14.50
2023-05-14T01:30:38.028Z,14.07
2023-05-14T01:33:13.811Z,15.10
2023-05-14T01:35:41.486Z,13.15
2023-05-14T01:38:12.429Z,13.95
2023-05-14T01:40:40.313Z,14.65
2023-05-14T01:43:07.858Z,14.20
2023-05-14T01:45:36.609Z,16.02
2023-05-14T01:48:05.724Z,15.10
2023-05-14T01:50:32.774Z,15.77
2023-05-14T01:52:59.792Z,16.38
2023-05-14T01:55:26.866Z,16.10
2023-05-14T01:57:54.686Z,16.13
2023-05-14T02:00:27.639Z,15.55
2023-05-14T02:02:54.802Z,15.95
2023-05-14T02:05:22.022Z,14.25
2023-05-14T02:07:49.032Z,13.05
2023-05-14T02:10:16.208Z,13.20
2023-05-14T02:12:43.246Z,14.83
2023-05-14T02:15:11.209Z,13.73
2023-05-14T02:17:38.590Z,15.20
2023-05-14T02:20:07.018Z,14.68
2023-05-14T02:22:34.116Z,14.73
2023-05-14T02:25:01.371Z,14.43
2023-05-14T02:27:28.406Z,14.65
2023-05-14T02:29:56.650Z,16.50
2023-05-14T02:32:23.764Z,15.17
2023-05-14T02:34:50.848Z,15.80
2023-05-14T02:37:17.808Z,16.42
2023-05-14T02:39:44.907Z,15.23
2023-05-14T02:42:11.956Z,15.83
2023-05-14T02:44:38.989Z,16.00
2023-05-14T02:47:06.254Z,15.50
2023-05-14T02:49:33.291Z,14.47
2023-05-14T02:52:00.966Z,15.43
2023-05-14T02:54:27.977Z,16.80
2023-05-14T02:56:54.966Z,15.70
2023-05-14T02:59:24.193Z,15.97
2023-05-14T03:01:51.767Z,16.63
2023-05-14T03:04:19.393Z,16.23
2023-05-14T03:06:46.353Z,17.43
2023-05-14T03:09:13.405Z,16.15
2023-05-14T03:11:40.758Z,16.50
2023-05-14T03:14:07.786Z,15.07
2023-05-14T03:16:34.813Z,16.13
2023-05-14T03:19:01.926Z,16.77
2023-05-14T03:21:29.101Z,16.50
2023-05-14T03:23:56.121Z,16.83
2023-05-14T03:26:23.174Z,17.60
2023-05-14T03:28:50.869Z,16.33
2023-05-14T03:31:18.079Z,16.13
2023-05-14T03:33:45.462Z,16.42
2023-05-14T03:36:12.496Z,16.27
2023-05-14T03:38:39.473Z,17.67
2023-05-14T03:41:06.639Z,16.02
2023-05-14T03:43:33.650Z,16.48
2023-05-14T03:46:00.693Z,16.20
2023-05-14T03:48:27.926Z,16.90
2023-05-14T03:50:55.183Z,18.00
2023-05-14T03:53:22.208Z,17.17
2023-05-14T03:55:49.200Z,15.73
2023-05-14T03:58:16.412Z,15.40
2023-05-14T04:00:44.020Z,16.30
2023-05-14T04:03:11.936Z,16.70
2023-05-14T04:05:39.014Z,16.90
2023-05-14T04:08:06.108Z,17.40
2023-05-14T04:10:33.205Z,16.60
2023-05-14T04:13:00.326Z,15.50
2023-05-14T04:15:27.416Z,15.38
2023-05-14T04:17:54.437Z,15.60
2023-05-14T04:20:21.570Z,15.73
2023-05-14T04:22:48.844Z,13.13
2023-05-14T04:25:16.008Z,14.35
2023-05-14T04:27:42.953Z,15.00
2023-05-14T04:30:10.662Z,14.98
2023-05-14T04:32:38.108Z,13.90
2023-05-14T04:35:06.021Z,14.85
2023-05-14T04:37:33.137Z,14.38
2023-05-14T04:40:01.002Z,13.90
2023-05-14T04:42:27.984Z,14.82
2023-05-14T04:44:54.979Z,14.57
2023-05-14T04:47:22.541Z,14.88
2023-05-14T04:49:49.642Z,15.15
2023-05-14T04:52:16.667Z,14.57
2023-05-14T04:54:43.775Z,15.40
2023-05-14T04:57:10.787Z,14.40
2023-05-14T04:59:37.802Z,16.70
2023-05-14T05:02:05.129Z,16.02
2023-05-14T05:04:32.149Z,16.13
2023-05-14T05:06:59.224Z,15.68
2023-05-14T05:09:26.197Z,15.32
2023-05-14T05:11:53.208Z,15.55
2023-05-14T05:14:20.188Z,14.27
2023-05-14T05:16:47.770Z,13.63
2023-05-14T05:19:14.793Z,14.13
2023-05-14T05:21:41.902Z,13.40
2023-05-14T05:24:09.113Z,13.40
2023-05-14T05:26:39.258Z,12.95
2023-05-14T05:29:06.539Z,12.60
2023-05-14T05:31:33.992Z,12.95
2023-05-14T05:34:01.376Z,13.32
2023-05-14T05:36:28.807Z,12.20
2023-05-14T05:38:56.227Z,12.10
2023-05-14T05:41:23.234Z,11.95
2023-05-14T05:43:50.431Z,10.52
2023-05-14T05:46:17.439Z,11.18
2023-05-14T05:48:44.521Z,10.35
2023-05-14T05:51:11.721Z,10.25
2023-05-14T05:53:38.714Z,10.13
2023-05-14T05:56:06.502Z,10.88
2023-05-14T05:58:33.791Z,9.85
2023-05-14T06:01:01.331Z,9.48
2023-05-14T06:03:28.463Z,8.60
2023-05-14T06:05:55.540Z,9.18
2023-05-14T06:08:22.599Z,9.10
2023-05-14T06:10:49.752Z,8.57
2023-05-14T06:13:16.980Z,7.97
2023-05-14T06:15:44.101Z,8.05
2023-05-14T06:18:11.087Z,8.85
2023-05-14T06:20:38.134Z,8.25
2023-05-14T06:23:05.989Z,7.47
2023-05-14T06:25:32.989Z,7.20
2023-05-14T06:27:59.957Z,7.75
2023-05-14T06:30:27.098Z,7.78
2023-05-14T06:32:54.633Z,7.35
2023-05-14T06:35:21.751Z,6.85
2023-05-14T06:37:48.750Z,8.32
2023-05-14T06:40:15.901Z,7.38
2023-05-14T06:42:42.894Z,7.45
2023-05-14T06:45:10.603Z,7.60
2023-05-14T06:47:37.763Z,6.85
2023-05-14T06:50:05.388Z,7.15
2023-05-14T06:52:32.436Z,7.30
2023-05-14T06:54:59.501Z,7.00
2023-05-14T06:57:26.751Z,7.25
2023-05-14T06:59:53.793Z,7.68
2023-05-14T07:02:20.958Z,7.80
2023-05-14T07:04:48.304Z,7.22
2023-05-14T07:07:18.360Z,6.88
2023-05-14T07:09:45.394Z,7.28
2023-05-14T07:12:12.488Z,6.18
2023-05-14T07:14:39.554Z,6.30
2023-05-14T07:17:06.564Z,5.28
2023-05-14T07:19:33.720Z,6.47
2023-05-14T07:22:01.233Z,4.88
2023-05-14T07:24:28.240Z,5.25
2023-05-14T07:26:57.241Z,5.22
2023-05-14T07:29:25.530Z,5.00
2023-05-14T07:31:52.592Z,4.72
2023-05-14T07:34:19.712Z,4.47
2023-05-14T07:36:47.109Z,4.75
2023-05-14T07:39:14.269Z,4.78
2023-05-14T07:41:41.297Z,4.15
2023-05-14T07:44:08.351Z,4.40
2023-05-14T07:46:36.592Z,4.03
2023-05-14T07:49:03.897Z,4.78
2023-05-14T07:51:33.526Z,4.10
2023-05-14T07:54:00.676Z,3.92
2023-05-14T07:56:27.728Z,4.00
2023-05-14T07:58:54.791Z,4.47
2023-05-14T08:01:22.919Z,4.75
2023-05-14T08:03:50.197Z,4.35
2023-05-14T08:06:17.302Z,3.58
2023-05-14T08:08:44.259Z,4.05
2023-05-14T08:11:11.380Z,3.92
2023-05-14T08:13:38.436Z,3.90
2023-05-14T08:16:06.340Z,3.97
2023-05-14T08:18:33.348Z,4.07
2023-05-14T08:21:01.654Z,3.97
2023-05-14T08:23:30.269Z,3.95
2023-05-14T08:25:57.232Z,4.15
2023-05-14T08:28:24.212Z,4.03
2023-05-14T08:30:51.596Z,4.05
2023-05-14T08:33:18.654Z,4.32
2023-05-14T08:35:45.660Z,3.80
2023-05-14T08:38:12.758Z,3.90
2023-05-14T08:40:40.467Z,3.92
2023-05-14T08:43:09.411Z,4.25
2023-05-14T08:45:38.476Z,3.63
2023-05-14T08:48:11.207Z,3.75
2023-05-14T08:50:38.423Z,3.22
2023-05-14T08:53:05.638Z,4.05
2023-05-14T08:55:34.165Z,3.50
2023-05-14T08:58:01.554Z,3.42
2023-05-14T09:00:28.617Z,3.30
2023-05-14T09:02:55.973Z,3.85
2023-05-14T09:05:23.637Z,2.97
2023-05-14T09:07:50.588Z,3.28
2023-05-14T09:10:18.552Z,3.13
2023-05-14T09:12:45.587Z,3.55
2023-05-14T09:15:13.543Z,3.63
2023-05-14T09:17:40.754Z,3.38
2023-05-14T09:20:09.508Z,3.10
2023-05-14T09:22:36.566Z,3.47
2023-05-14T09:25:09.672Z,2.83
2023-05-14T09:27:37.032Z,2.85
2023-05-14T09:30:12.645Z,2.92
2023-05-14T09:32:50.345Z,3.35
2023-05-14T09:35:21.977Z,2.63
2023-05-14T09:37:54.378Z,3.10
2023-05-14T09:40:24.364Z,2.50
2023-05-14T09:42:51.734Z,3.03
2023-05-14T09:45:18.840Z,3.03
2023-05-14T09:47:46.173Z,2.83
2023-05-14T09:50:13.638Z,2.25
2023-05-14T09:52:40.714Z,2.65
2023-05-14T09:55:08.480Z,2.70
2023-05-14T09:57:35.826Z,2.47
2023-05-14T10:00:03.847Z,2.88
2023-05-14T10:02:38.210Z,2.58
2023-05-14T10:05:07.063Z,2.42
2023-05-14T10:07:46.800Z,2.75
2023-05-14T10:10:21.299Z,2.60
2023-05-14T10:13:04.294Z,2.47
2023-05-14T10:15:41.674Z,2.65
2023-05-14T10:18:16.287Z,2.47
2023-05-14T10:20:44.185Z,2.42
2023-05-14T10:23:11.359Z,2.47
2023-05-14T10:25:39.114Z,2.85
2023-05-14T10:28:06.752Z,2.78
2023-05-14T10:30:33.824Z,2.47
2023-05-14T10:33:16.822Z,2.30
2023-05-14T10:36:06.369Z,2.72
2023-05-14T10:38:38.146Z,2.65
2023-05-14T10:41:12.962Z,2.88
2023-05-14T10:43:42.242Z,2.40
2023-05-14T10:46:12.802Z,3.35
2023-05-14T10:48:43.016Z,2.42
2023-05-14T10:51:11.459Z,2.55
2023-05-14T10:53:43.293Z,3.10
2023-05-14T10:56:14.007Z,3.00
2023-05-14T10:58:44.321Z,2.50
2023-05-14T11:01:13.668Z,2.72
2023-05-14T11:03:46.850Z,3.05
2023-05-14T11:06:16.691Z,2.25
2023-05-14T11:08:44.717Z,2.40
2023-05-14T11:11:11.997Z,2.30
2023-05-14T11:13:39.265Z,3.08
2023-05-14T11:18:38.698Z,2.75
2023-05-14T11:21:05.911Z,2.70
2023-05-14T11:23:33.009Z,2.40
2023-05-14T11:26:00.009Z,2.60
2023-05-14T11:28:27.440Z,2.60
2023-05-14T11:30:54.721Z,2.28
2023-05-14T11:33:21.802Z,2.85
2023-05-14T11:35:48.867Z,2.83
2023-05-14T11:38:21.240Z,2.40
2023-05-14T11:40:56.847Z,2.40
2023-05-14T11:43:26.146Z,2.03
2023-05-14T11:45:54.706Z,2.85
2023-05-14T11:48:23.022Z,2.80
2023-05-14T11:50:52.832Z,2.20
2023-05-14T11:53:28.044Z,2.92
2023-05-14T11:55:57.763Z,2.42
2023-05-14T11:58:25.343Z,2.38
2023-05-14T12:00:53.645Z,2.30
2023-05-14T12:03:25.686Z,2.30
2023-05-14T12:06:00.618Z,2.58
2023-05-14T12:08:31.905Z,1.90
2023-05-14T12:11:00.720Z,2.63
2023-05-14T12:13:32.495Z,2.65
2023-05-14T12:16:02.393Z,2.67
2023-05-14T12:18:32.029Z,2.53
2023-05-14T12:21:08.406Z,2.33
2023-05-14T12:23:35.628Z,2.25
2023-05-14T12:26:07.326Z,2.25
2023-05-14T12:28:37.960Z,2.33
2023-05-14T12:31:05.879Z,2.50
2023-05-14T12:33:32.931Z,2.60
2023-05-14T12:36:19.884Z,2.22
2023-05-14T12:38:48.838Z,1.80
2023-05-14T12:41:15.954Z,2.28
2023-05-14T12:43:49.644Z,2.20
2023-05-14T12:46:17.205Z,1.85
2023-05-14T12:48:44.279Z,2.17
2023-05-14T12:51:11.252Z,2.47
2023-05-14T12:53:38.370Z,2.30
2023-05-14T12:56:06.410Z,2.35
2023-05-14T12:58:33.609Z,2.53
2023-05-14T13:01:00.712Z,2.03
2023-05-14T13:03:27.875Z,2.45
2023-05-14T13:05:55.056Z,2.22
2023-05-14T13:08:25.025Z,2.40
2023-05-14T13:10:53.450Z,1.88
2023-05-14T13:13:20.448Z,2.15
2023-05-14T13:15:48.007Z,2.60
2023-05-14T13:18:16.605Z,2.35
2023-05-14T13:20:45.666Z,1.88
2023-05-14T13:23:12.689Z,2.10
2023-05-14T13:25:39.918Z,2.40
2023-05-14T13:28:08.463Z,2.03
2023-05-14T13:30:35.564Z,2.20
2023-05-14T13:33:02.652Z,2.53
2023-05-14T13:35:29.734Z,2.50
2023-05-14T13:37:56.703Z,2.15
2023-05-14T13:40:23.737Z,2.45
2023-05-14T13:42:50.740Z,1.80
2023-05-14T13:45:17.778Z,2.40
2023-05-14T13:47:44.838Z,2.15
2023-05-14T13:50:11.958Z,1.98
2023-05-14T13:52:39.343Z,2.20
2023-05-14T13:55:07.283Z,2.38
2023-05-14T13:57:34.239Z,2.67
2023-05-14T14:00:01.570Z,2.30
2023-05-14T14:02:28.645Z,2.30
2023-05-14T14:04:55.911Z,2.35
2023-05-14T14:07:22.994Z,2.53
2023-05-14T14:09:49.967Z,2.38
2023-05-14T14:12:17.135Z,2.30
2023-05-14T14:14:44.168Z,2.30
2023-05-14T14:17:11.164Z,2.15
2023-05-14T14:19:38.170Z,2.33
2023-05-14T14:22:05.657Z,2.03
2023-05-14T14:24:32.655Z,2.58
2023-05-14T14:26:59.909Z,2.28
2023-05-14T14:29:28.892Z,2.10
2023-05-14T14:31:56.037Z,2.33
2023-05-14T14:34:23.053Z,2.25
2023-05-14T14:36:50.035Z,3.08
2023-05-14T14:39:16.986Z,2.30
2023-05-14T14:41:44.613Z,3.60
2023-05-14T14:44:11.674Z,2.38
2023-05-14T14:46:38.660Z,2.15
2023-05-14T14:49:05.753Z,3.83
2023-05-14T14:51:33.085Z,2.28
2023-05-14T14:54:00.157Z,2.30
2023-05-14T14:56:27.494Z,1.85
2023-05-14T14:58:54.467Z,2.17
2023-05-14T15:01:22.861Z,2.10
2023-05-14T15:03:49.910Z,2.22
2023-05-14T15:06:16.882Z,2.20
2023-05-14T15:08:43.902Z,2.35
2023-05-14T15:11:10.900Z,2.28
2023-05-14T15:13:38.096Z,2.55
2023-05-14T15:16:05.416Z,2.30
2023-05-14T15:18:32.469Z,1.83
2023-05-14T15:20:59.456Z,2.10
2023-05-14T15:23:26.525Z,2.40
2023-05-14T15:25:53.537Z,2.65
2023-05-14T15:28:20.522Z,2.35
2023-05-14T15:30:50.484Z,2.08
2023-05-14T15:33:19.307Z,2.22
2023-05-14T15:35:46.719Z,1.85
2023-05-14T15:38:13.771Z,2.17
2023-05-14T15:40:41.649Z,2.30
2023-05-14T15:43:08.660Z,2.15
2023-05-14T15:45:35.640Z,2.30
2023-05-14T15:48:02.700Z,1.70
2023-05-14T15:50:29.726Z,2.13
2023-05-14T15:52:56.553Z,2.40
2023-05-14T15:55:23.590Z,2.00
2023-05-14T15:57:50.731Z,2.53
2023-05-14T16:00:18.213Z,2.65
2023-05-14T16:02:45.472Z,2.30
2023-05-14T16:05:13.862Z,2.30
2023-05-14T16:07:41.476Z,2.20
2023-05-14T16:10:09.076Z,2.35
2023-05-14T16:12:36.130Z,2.30
2023-05-14T16:15:03.350Z,2.33
2023-05-14T16:17:32.714Z,2.17
2023-05-14T16:20:04.896Z,2.80
2023-05-14T16:22:36.185Z,2.45
2023-05-14T16:25:04.858Z,2.58
2023-05-14T16:27:32.153Z,2.38
2023-05-14T16:29:59.212Z,2.60
2023-05-14T16:32:26.241Z,2.30
2023-05-14T16:34:53.339Z,2.40
2023-05-14T16:37:20.703Z,2.30
2023-05-14T16:39:48.540Z,2.50
2023-05-14T16:42:15.522Z,2.45
2023-05-14T16:44:42.590Z,2.17
2023-05-14T16:47:09.631Z,2.42
2023-05-14T16:49:36.639Z,2.80
2023-05-14T16:52:03.899Z,2.53
2023-05-14T16:54:30.877Z,2.33
2023-05-14T16:56:58.073Z,2.30
2023-05-14T16:59:25.384Z,2.53
2023-05-14T17:01:52.438Z,2.40
2023-05-14T17:04:19.514Z,2.72
2023-05-14T17:06:46.699Z,2.20
2023-05-14T17:09:13.700Z,2.65
2023-05-14T17:11:40.968Z,2.50
2023-05-14T17:14:09.150Z,2.30
2023-05-14T17:16:36.367Z,2.75
2023-05-14T17:19:03.604Z,2.90
2023-05-14T17:21:31.484Z,2.00
2023-05-14T17:23:58.785Z,2.42
2023-05-14T17:26:26.376Z,2.70
2023-05-14T17:28:53.348Z,2.40
2023-05-14T17:31:21.754Z,2.30
2023-05-14T17:33:49.341Z,2.67
2023-05-14T17:36:16.397Z,3.03
2023-05-14T17:38:43.369Z,2.83
2023-05-14T17:41:10.327Z,2.63
2023-05-14T17:43:37.328Z,2.65
2023-05-14T17:46:05.248Z,2.15
2023-05-14T17:48:32.245Z,2.70
2023-05-14T17:50:59.216Z,2.60
2023-05-14T17:53:26.319Z,2.55
2023-05-14T17:55:53.451Z,3.15
2023-05-14T17:58:20.521Z,2.50
2023-05-14T18:00:47.597Z,2.80
2023-05-14T18:03:15.174Z,3.08
2023-05-14T18:05:42.305Z,3.15
2023-05-14T18:08:09.706Z,2.78
2023-05-14T18:10:36.884Z,2.70
2023-05-14T18:13:04.079Z,2.85
2023-05-14T18:15:31.639Z,2.90
2023-05-14T18:17:59.112Z,2.88
2023-05-14T18:20:26.137Z,2.65
2023-05-14T18:22:53.252Z,3.08
2023-05-14T18:25:20.298Z,2.85
2023-05-14T18:27:47.368Z,3.22
2023-05-14T18:30:15.494Z,2.50
2023-05-14T18:32:44.773Z,3.03
2023-05-14T18:35:13.722Z,3.15
2023-05-14T18:37:41.262Z,2.63
2023-05-14T18:40:09.202Z,2.90
2023-05-14T18:42:36.309Z,2.88
2023-05-14T18:45:04.547Z,3.05
2023-05-14T18:47:33.102Z,3.35
2023-05-14T18:50:01.914Z,3.15
2023-05-14T18:52:29.540Z,3.58
2023-05-14T18:54:56.682Z,2.90
2023-05-14T18:57:23.833Z,3.08
2023-05-14T18:59:50.816Z,3.22
2023-05-14T19:02:17.855Z,2.67
2023-05-14T19:04:52.301Z,3.88
2023-05-14T19:07:21.028Z,3.95
2023-05-14T19:09:48.380Z,3.92
2023-05-14T19:12:16.290Z,3.70
2023-05-14T19:14:43.387Z,3.58
2023-05-14T19:17:11.038Z,3.55
2023-05-14T19:19:39.325Z,3.63
2023-05-14T19:22:06.859Z,3.15
2023-05-14T19:24:33.955Z,3.40
2023-05-14T19:27:01.189Z,3.65
2023-05-14T19:29:28.288Z,3.45
2023-05-14T19:31:55.360Z,3.40
2023-05-14T19:34:22.390Z,3.92
2023-05-14T19:36:49.730Z,3.90
2023-05-14T19:39:16.765Z,4.47
2023-05-14T19:41:43.806Z,4.03
2023-05-14T19:44:11.110Z,4.00
2023-05-14T19:46:38.272Z,4.25
2023-05-14T19:49:05.338Z,3.60
2023-05-14T19:51:32.613Z,4.22
2023-05-14T19:53:59.635Z,3.92
2023-05-14T19:56:27.384Z,5.10
2023-05-14T19:58:54.679Z,4.00
2023-05-14T20:01:21.853Z,4.53
2023-05-14T20:03:49.050Z,3.97
2023-05-14T20:06:17.588Z,3.70
2023-05-14T20:08:45.441Z,4.00
2023-05-14T20:11:12.688Z,3.67
2023-05-14T20:13:39.658Z,3.85
2023-05-14T20:16:06.770Z,4.75
2023-05-14T20:18:33.875Z,4.32
2023-05-14T20:21:01.335Z,4.30
2023-05-14T20:23:28.425Z,4.38
2023-05-14T20:25:55.754Z,4.75
2023-05-14T20:28:22.795Z,4.53
2023-05-14T20:30:49.802Z,4.70
2023-05-14T20:33:17.004Z,4.43
2023-05-14T20:35:44.233Z,4.05
2023-05-14T20:38:12.886Z,4.25
2023-05-14T20:40:40.453Z,4.22
2023-05-14T20:43:07.524Z,4.50
2023-05-14T20:45:34.538Z,4.97
2023-05-14T20:48:01.719Z,5.13
2023-05-14T20:50:28.791Z,5.13
2023-05-14T20:52:56.084Z,4.40
2023-05-14T20:55:23.530Z,4.50
2023-05-14T20:57:50.918Z,4.15
2023-05-14T21:00:18.723Z,4.68
2023-05-14T21:02:45.892Z,5.13
2023-05-14T21:05:14.029Z,4.60
2023-05-14T21:07:41.127Z,4.65
2023-05-14T21:10:09.818Z,4.85
2023-05-14T21:12:36.937Z,4.82
2023-05-14T21:15:04.498Z,5.07
2023-05-14T21:17:31.533Z,6.50
2023-05-14T21:19:58.535Z,5.70
2023-05-14T21:22:27.303Z,5.57
2023-05-14T21:24:55.957Z,5.55
2023-05-14T21:27:23.377Z,4.80
2023-05-14T21:29:50.555Z,6.40
2023-05-14T21:32:18.010Z,6.72
2023-05-14T21:34:45.073Z,6.47
2023-05-14T21:37:12.124Z,6.68
2023-05-14T21:39:39.112Z,7.35
2023-05-14T21:42:06.650Z,6.00
2023-05-14T21:44:33.691Z,7.72
2023-05-14T21:47:00.800Z,6.78
2023-05-14T21:49:27.796Z,6.50
2023-05-14T21:51:54.873Z,7.45
2023-05-14T21:54:21.894Z,6.57
2023-05-14T21:56:48.981Z,6.10
2023-05-14T21:59:15.968Z,6.75
2023-05-14T22:04:13.416Z,5.47
2023-05-14T22:06:40.645Z,6.00
2023-05-14T22:09:10.476Z,4.75
2023-05-14T22:11:37.500Z,5.18
2023-05-14T22:14:04.508Z,4.72
2023-05-14T22:16:33.454Z,4.65
2023-05-14T22:19:00.679Z,4.55
2023-05-14T22:21:28.489Z,4.00
2023-05-14T22:23:55.524Z,4.40
2023-05-14T22:26:22.580Z,3.92
2023-05-14T22:28:49.907Z,4.72
2023-05-14T22:31:17.039Z,3.90
2023-05-14T22:33:44.289Z,4.28
2023-05-14T22:36:11.285Z,4.13
2023-05-14T22:38:39.053Z,4.75
2023-05-14T22:41:06.097Z,4.13
2023-05-14T22:43:33.097Z,4.60
2023-05-14T22:46:00.260Z,3.65
2023-05-14T22:48:27.461Z,3.78
2023-05-14T22:50:54.541Z,4.10
2023-05-14T22:53:21.546Z,4.13
2023-05-14T22:55:48.696Z,4.68
2023-05-14T22:58:15.743Z,3.70
2023-05-14T23:00:42.735Z,3.88
2023-05-14T23:03:09.834Z,3.75
2023-05-14T23:05:36.890Z,3.47
2023-05-14T23:08:04.123Z,3.90
2023-05-14T23:10:31.341Z,4.00
2023-05-14T23:12:58.460Z,3.63
2023-05-14T23:15:25.756Z,3.92
2023-05-14T23:17:53.030Z,4.00
2023-05-14T23:20:20.111Z,4.13
2023-05-14T23:22:47.116Z,4.30
2023-05-14T23:25:14.168Z,3.70
2023-05-14T23:27:41.239Z,4.15
2023-05-14T23:30:08.908Z,3.63
2023-05-14T23:32:36.071Z,4.07
2023-05-14T23:35:03.237Z,3.58
2023-05-14T23:37:30.644Z,3.80
2023-05-14T23:39:57.668Z,4.10
2023-05-14T23:42:24.938Z,3.50
2023-05-14T23:44:51.925Z,3.35
2023-05-14T23:47:19.127Z,3.25
2023-05-14T23:49:46.157Z,3.78
2023-05-14T23:52:13.214Z,4.18
2023-05-14T23:54:40.243Z,3.70
2023-05-14T23:57:07.294Z,3.47
2023-05-14T23:59:34.392Z,4.40
